Terminal Aerodrome Forecast
Issued by NWS

Home | Current Version | Previous Version | Text Only | Print | Product List | Glossary On
Versions: 1 2 3 4 5 6 7 8 9 10 11 12 13 14 15 16 17 18 19 20 21
000
FTUS46 KLOX 121700
TAFVNY
TAF
KVNY 121721Z 1218/1318 VRB03KT P6SM SCT200
     FM122000 15008KT P6SM SCT200
     FM130400 VRB03KT P6SM SCT200
     FM131300 VRB03KT 5SM BR SCT008
     FM131700 VRB05KT P6SM SKC=

USA.gov is the U.S. government's official web portal to all federal, state and local government web resources and services.